Time;durP1;ratioP1;P1;durP2;ratioP2;P2;SDS_P1;SDS_P2;PMS_P1;PMS_P2;Temp;Humidity;BMP_temperature;BMP_pressure;BME280_temperature;BME280_humidity;BME280_pressure;Samples;Min_cycle;Max_cycle;Signal;HPM_P1;HPM_P2
2022/01/24 00:01:54;;;;;;;7.30;4.62;;;;;;;7.17;48.87;101204.03;1789127;78;21516;-65
2022/01/24 00:04:22;;;;;;;5.20;4.42;;;;;;;7.17;48.87;101206.67;1773483;77;21367;-65
2022/01/24 00:06:50;;;;;;;6.20;4.67;;;;;;;7.16;48.84;101204.97;1782091;78;21399;-65
2022/01/24 00:09:17;;;;;;;4.95;4.45;;;;;;;7.16;48.83;101209.42;1772656;78;21024;-64
2022/01/24 00:11:58;;;;;;;5.10;4.60;;;;;;;7.16;48.83;101214.22;1774511;78;21012;-65
2022/01/24 00:17:06;;;;;;;5.37;4.45;;;;;;;7.14;48.77;101212.16;1781929;78;21080;-65
2022/01/24 00:27:44;;;;;;;6.12;4.97;;;;;;;7.12;48.74;101248.92;1769330;78;21603;-65
2022/01/24 00:30:11;;;;;;;5.53;4.65;;;;;;;7.10;48.71;101245.05;1764148;81;21028;-65
2022/01/24 00:32:39;;;;;;;6.78;5.00;;;;;;;7.10;48.72;101251.66;1768104;80;21113;-66
2022/01/24 00:35:06;;;;;;;5.47;4.65;;;;;;;7.09;48.71;101248.67;1782138;78;21091;-64
2022/01/24 00:37:34;;;;;;;5.28;4.70;;;;;;;7.08;48.69;101261.02;1780596;77;21162;-65
2022/01/24 00:40:01;;;;;;;5.70;5.05;;;;;;;7.07;48.68;101261.98;1803338;79;21011;-65
2022/01/24 00:42:52;;;;;;;5.42;4.92;;;;;;;7.07;48.65;101257.19;1804609;78;21469;-66
2022/01/24 00:47:47;;;;;;;5.92;4.65;;;;;;;7.05;48.61;101260.38;1783528;77;21057;-66
2022/01/24 00:55:22;;;;;;;6.20;5.45;;;;;;;7.04;48.57;101258.70;1807082;77;21096;-65
2022/01/24 00:57:48;;;;;;;6.72;5.10;;;;;;;7.02;48.57;101254.02;1795899;77;20987;-64
2022/01/24 01:00:16;;;;;;;5.97;5.37;;;;;;;7.01;48.55;101256.27;1793016;77;21599;-64
2022/01/24 01:02:43;;;;;;;5.87;4.97;;;;;;;7.00;48.52;101260.72;1790514;77;21046;-65
2022/01/24 01:05:25;;;;;;;6.65;5.50;;;;;;;6.99;48.51;101264.78;1795360;77;21057;-66
2022/01/24 01:07:52;;;;;;;5.65;5.05;;;;;;;6.99;48.50;101259.50;1796446;77;21010;-65
2022/01/24 01:18:22;;;;;;;6.78;5.35;;;;;;;6.95;48.41;101265.47;1793321;77;21049;-66
2022/01/24 01:21:11;;;;;;;6.72;5.40;;;;;;;6.94;48.40;101264.28;1803458;77;21085;-66
2022/01/24 01:23:42;;;;;;;5.30;4.80;;;;;;;6.91;48.41;101266.64;1795524;77;21080;-67
2022/01/24 01:26:21;;;;;;;5.87;5.10;;;;;;;6.89;48.38;101265.91;1804768;77;21068;-65
2022/01/24 01:28:43;;;;;;;5.53;5.00;;;;;;;6.89;48.38;101269.41;1789522;77;21144;-65
2022/01/24 01:31:15;;;;;;;7.80;6.12;;;;;;;6.87;48.38;101265.17;1783476;77;21074;-66
2022/01/24 01:33:54;;;;;;;6.00;5.40;;;;;;;6.86;48.35;101271.42;1789816;77;21576;-66
2022/01/24 01:39:30;;;;;;;5.65;5.00;;;;;;;6.85;48.35;101268.39;1775556;79;21517;-67
2022/01/24 01:57:59;;;;;;;6.65;5.40;;;;;;;6.74;48.31;101293.38;1753320;80;21648;-65
2022/01/24 02:00:25;;;;;;;6.72;5.37;;;;;;;6.72;48.28;101288.20;1757991;80;21138;-65
2022/01/24 02:02:52;;;;;;;6.80;6.10;;;;;;;6.72;48.28;101284.23;1770112;79;21053;-66
2022/01/24 02:05:18;;;;;;;6.08;5.47;;;;;;;6.72;48.27;101284.23;1784427;79;21407;-66
2022/01/24 02:07:50;;;;;;;5.85;5.17;;;;;;;6.71;48.26;101290.48;1759162;80;21200;-66
2022/01/24 02:10:17;;;;;;;6.85;5.58;;;;;;;6.70;48.26;101292.73;1776009;79;21048;-66
2022/01/24 02:12:44;;;;;;;7.25;5.47;;;;;;;6.69;48.22;101287.94;1765058;79;20995;-66
2022/01/24 02:15:15;;;;;;;5.95;5.20;;;;;;;6.69;48.22;101284.46;1778590;80;21033;-66
2022/01/24 02:17:58;;;;;;;7.00;5.40;;;;;;;6.69;48.20;101285.78;1780099;79;21000;-65
2022/01/24 02:23:14;;;;;;;5.95;5.33;;;;;;;6.68;48.17;101285.40;1772931;80;21534;-65
2022/01/24 02:25:26;;;;;;;5.67;5.08;;;;;;;6.67;48.15;101289.00;1762768;80;21501;-66
2022/01/24 02:27:56;;;;;;;6.62;5.72;;;;;;;6.66;48.15;101282.02;1778942;79;21030;-66
2022/01/24 02:30:42;;;;;;;5.62;5.03;;;;;;;6.67;48.13;101286.36;1780681;80;21052;-65
2022/01/24 02:32:55;;;;;;;6.08;5.47;;;;;;;6.64;48.13;101283.44;1774634;79;21202;-66
2022/01/24 02:35:21;;;;;;;5.90;5.10;;;;;;;6.63;48.10;101281.77;1777541;80;20991;-65
2022/01/24 02:37:48;;;;;;;6.35;5.62;;;;;;;6.62;48.10;101281.37;1761137;79;21003;-66
2022/01/24 02:40:18;;;;;;;6.00;5.33;;;;;;;6.62;48.07;101284.50;1785606;79;21028;-66
2022/01/24 02:48:24;;;;;;;7.47;5.70;;;;;;;6.60;48.05;101298.28;1794420;77;21034;-65
2022/01/24 02:53:30;;;;;;;6.58;5.67;;;;;;;6.59;48.02;101290.02;1785138;77;21013;-65
2022/01/24 02:55:56;;;;;;;7.45;5.65;;;;;;;6.56;48.01;101284.44;1803675;77;21009;-66
2022/01/24 02:58:22;;;;;;;5.87;5.28;;;;;;;6.56;48.02;101282.28;1794501;78;21058;-65
2022/01/24 03:00:50;;;;;;;7.65;5.75;;;;;;;6.56;48.04;101291.53;1785573;77;21025;-64
2022/01/24 03:03:17;;;;;;;6.53;5.75;;;;;;;6.55;47.99;101296.42;1799420;77;21514;-65
2022/01/24 03:05:43;;;;;;;7.03;5.72;;;;;;;6.54;47.98;101295.59;1809865;79;21042;-66
2022/01/24 03:08:11;;;;;;;6.12;5.53;;;;;;;6.53;47.96;101295.68;1814423;78;21042;-65
2022/01/24 03:10:44;;;;;;;6.28;5.62;;;;;;;6.54;47.97;101300.03;1787959;77;21092;-65
2022/01/24 03:15:55;;;;;;;7.50;5.80;;;;;;;6.52;47.92;101306.73;1799903;77;21025;-66
2022/01/24 03:18:22;;;;;;;7.25;5.83;;;;;;;6.52;47.92;101304.57;1810699;77;21021;-65
2022/01/24 03:20:48;;;;;;;6.10;5.37;;;;;;;6.50;47.89;101300.70;1807266;77;20986;-66
2022/01/24 03:23:18;;;;;;;7.33;6.12;;;;;;;6.49;47.89;101304.31;1809653;77;21113;-65
2022/01/24 03:25:45;;;;;;;6.55;5.78;;;;;;;6.48;47.88;101310.05;1791534;78;21024;-66
2022/01/24 03:28:13;;;;;;;6.47;5.80;;;;;;;6.48;47.87;101308.72;1804427;79;21001;-65
2022/01/24 03:30:40;;;;;;;6.42;5.72;;;;;;;6.48;47.87;101303.44;1807063;77;21013;-66
2022/01/24 03:33:08;;;;;;;6.47;5.80;;;;;;;6.46;47.84;101300.06;1796213;77;21104;-65
2022/01/24 03:35:34;;;;;;;6.58;5.55;;;;;;;6.47;47.83;101307.50;1797587;78;21125;-65
2022/01/24 03:38:02;;;;;;;6.55;5.45;;;;;;;6.45;47.81;101306.31;1782514;79;21048;-65
2022/01/24 03:40:29;;;;;;;8.38;6.15;;;;;;;6.45;47.81;101308.08;1766635;79;20989;-65
2022/01/24 03:42:56;;;;;;;6.95;6.22;;;;;;;6.45;47.78;101310.27;1765448;79;21072;-65
2022/01/24 03:45:37;;;;;;;6.92;5.47;;;;;;;6.44;47.76;101316.48;1768886;80;21493;-65
2022/01/24 03:48:03;;;;;;;7.60;5.97;;;;;;;6.44;47.76;101320.44;1751592;80;21962;-65
2022/01/24 03:50:25;;;;;;;7.65;6.47;;;;;;;6.42;47.77;101317.06;1763385;79;21603;-66
2022/01/24 03:52:52;;;;;;;7.50;5.70;;;;;;;6.42;47.76;101322.34;1776914;79;21036;-67
2022/01/24 03:55:18;;;;;;;6.90;6.08;;;;;;;6.42;47.75;101324.14;1765455;80;20981;-67
2022/01/24 03:57:44;;;;;;;6.33;5.60;;;;;;;6.40;47.73;101321.60;1783698;80;21060;-66
2022/01/24 04:00:12;;;;;;;6.72;6.00;;;;;;;6.40;47.72;101322.92;1784131;80;21118;-66
2022/01/24 04:02:42;;;;;;;6.80;5.90;;;;;;;6.39;47.70;101322.53;1765953;79;21092;-66
2022/01/24 04:05:11;;;;;;;6.95;5.60;;;;;;;6.38;47.72;101323.50;1767172;79;21025;-66
2022/01/24 04:07:37;;;;;;;8.08;6.15;;;;;;;6.37;47.68;101319.16;1755715;80;21113;-66
2022/01/24 04:10:07;;;;;;;7.40;5.83;;;;;;;6.37;47.68;101315.67;1760248;80;21524;-67
2022/01/24 04:12:37;;;;;;;6.92;5.85;;;;;;;6.36;47.69;101316.16;1774266;79;21620;-65
2022/01/24 04:15:27;;;;;;;6.60;5.87;;;;;;;6.35;47.68;101322.38;1754579;79;21020;-65
2022/01/24 04:17:45;;;;;;;7.80;6.45;;;;;;;6.35;47.67;101318.41;1765019;79;21025;-65
2022/01/24 04:22:58;;;;;;;6.90;5.95;;;;;;;6.32;47.62;101309.39;1752080;79;21032;-67
2022/01/24 04:25:24;;;;;;;6.55;5.62;;;;;;;6.33;47.63;101306.27;1767899;80;21131;-67
2022/01/24 04:27:52;;;;;;;8.10;6.42;;;;;;;6.31;47.64;101315.61;1783564;80;21040;-66
2022/01/24 04:30:19;;;;;;;7.00;6.28;;;;;;;6.30;47.62;101317.41;1782914;79;21060;-66
2022/01/24 04:32:48;;;;;;;7.15;6.12;;;;;;;6.29;47.62;101315.70;1779896;80;21110;-66
2022/01/24 04:35:14;;;;;;;7.72;6.92;;;;;;;6.29;47.62;101313.55;1782487;79;21057;-66
2022/01/24 04:37:41;;;;;;;6.97;5.95;;;;;;;6.29;47.61;101310.42;1753349;80;21920;-66
2022/01/24 04:40:09;;;;;;;6.47;5.75;;;;;;;6.28;47.59;101311.39;1783635;77;21024;-65
2022/01/24 04:42:46;;;;;;;6.83;6.12;;;;;;;6.28;47.58;101303.95;1812167;78;21006;-65
2022/01/24 04:45:26;;;;;;;7.20;6.03;;;;;;;6.28;47.57;101309.23;1787739;77;21069;-66
2022/01/24 04:50:25;;;;;;;7.22;5.97;;;;;;;6.28;47.58;101310.55;1806545;78;21076;-65
2022/01/24 04:53:01;;;;;;;8.33;6.30;;;;;;;6.25;47.56;101315.53;1706846;83;21054;-66
2022/01/24 04:55:21;;;;;;;6.70;5.90;;;;;;;6.25;47.54;101319.98;1758740;79;21029;-66
2022/01/24 04:57:48;;;;;;;7.72;6.22;;;;;;;6.24;47.53;101320.94;1796635;78;21466;-66
2022/01/24 05:00:15;;;;;;;7.22;6.45;;;;;;;6.24;47.53;101324.91;1783221;77;21053;-66
2022/01/24 05:02:42;;;;;;;7.85;6.40;;;;;;;6.23;47.53;101325.83;1808323;77;21133;-68
2022/01/24 05:05:13;;;;;;;8.55;6.62;;;;;;;6.23;47.52;101324.52;1812010;79;20998;-67
2022/01/24 05:07:38;;;;;;;7.78;6.33;;;;;;;6.23;47.52;101328.47;1809852;77;21554;-66
2022/01/24 05:10:16;;;;;;;8.28;6.78;;;;;;;6.22;47.48;101336.88;1791663;77;21136;-68
2022/01/24 05:25:48;;;;;;;7.80;6.60;;;;;;;6.19;47.45;101345.45;1817126;78;21137;-67
2022/01/24 05:28:14;;;;;;;7.58;6.60;;;;;;;6.18;47.43;101341.11;1750584;80;22035;-65
2022/01/24 05:30:41;;;;;;;7.53;6.45;;;;;;;6.16;47.44;101345.20;1725485;81;21128;-67
2022/01/24 05:33:07;;;;;;;7.50;6.58;;;;;;;6.17;47.43;101348.67;1737437;81;20963;-67
2022/01/24 05:35:33;;;;;;;7.50;6.65;;;;;;;6.16;47.42;101342.56;1729455;80;21116;-67
2022/01/24 05:38:00;;;;;;;7.55;6.00;;;;;;;6.16;47.42;101353.56;1750636;81;21084;-67
2022/01/24 05:40:26;;;;;;;7.70;6.50;;;;;;;6.16;47.42;101352.24;1760902;80;21062;-66
2022/01/24 05:42:52;;;;;;;6.72;6.03;;;;;;;6.17;47.39;101357.91;1765425;80;21049;-66
2022/01/24 05:45:19;;;;;;;8.25;6.58;;;;;;;6.16;47.35;101353.56;1729134;81;21585;-67
2022/01/24 05:47:45;;;;;;;7.62;6.12;;;;;;;6.15;47.36;101355.36;1740021;81;21628;-68
2022/01/24 05:50:11;;;;;;;7.62;6.62;;;;;;;6.15;47.34;101359.80;1772527;80;21119;-67
2022/01/24 05:52:39;;;;;;;8.73;6.47;;;;;;;6.14;47.34;101358.94;1731058;81;21045;-65
2022/01/24 05:55:07;;;;;;;6.92;6.10;;;;;;;6.14;47.31;101360.25;1734965;81;21565;-68
2022/01/24 05:57:34;;;;;;;7.12;6.03;;;;;;;6.14;47.33;101367.33;1742944;81;21058;-66
2022/01/24 06:00:00;;;;;;;6.60;5.40;;;;;;;6.13;47.31;101363.02;1757569;80;21074;-68
2022/01/24 06:02:27;;;;;;;7.10;6.05;;;;;;;6.13;47.28;101367.81;1735402;80;21274;-67
2022/01/24 06:04:53;;;;;;;8.15;5.90;;;;;;;6.12;47.28;101366.59;1747366;80;21014;-67
2022/01/24 06:07:20;;;;;;;8.03;6.37;;;;;;;6.13;47.27;101364.34;1741241;81;21231;-66
2022/01/24 06:09:46;;;;;;;7.80;6.90;;;;;;;6.12;47.27;101370.06;1775870;80;21493;-69
2022/01/24 06:12:12;;;;;;;6.35;5.47;;;;;;;6.13;47.24;101372.25;1735542;81;21010;-68
2022/01/24 06:14:40;;;;;;;7.55;6.17;;;;;;;6.12;47.24;101372.70;1754547;81;21145;-67
2022/01/24 06:17:06;;;;;;;7.08;6.17;;;;;;;6.12;47.24;101373.19;1771981;80;21525;-67
2022/01/24 06:19:33;;;;;;;7.72;5.95;;;;;;;6.12;47.22;101375.83;1780532;80;21252;-67
2022/01/24 06:22:01;;;;;;;7.08;6.35;;;;;;;6.10;47.23;101372.83;1753915;80;21107;-66
2022/01/24 06:24:27;;;;;;;6.90;6.20;;;;;;;6.12;47.20;101367.42;1740041;80;21045;-67
2022/01/24 06:26:53;;;;;;;7.42;6.08;;;;;;;6.12;47.20;101374.02;1755461;81;21222;-67
2022/01/24 06:29:20;;;;;;;8.08;6.65;;;;;;;6.10;47.17;101363.59;1748185;81;21466;-66
2022/01/24 06:31:46;;;;;;;7.17;6.33;;;;;;;6.12;47.18;101370.55;1745608;81;21014;-68
2022/01/24 06:34:13;;;;;;;7.08;6.15;;;;;;;6.12;47.16;101369.23;1743436;81;21064;-67
2022/01/24 06:36:39;;;;;;;7.25;6.15;;;;;;;6.10;47.15;101370.19;1742129;81;21593;-67
2022/01/24 06:39:06;;;;;;;7.78;6.17;;;;;;;6.12;47.15;101377.14;1748993;81;21155;-67
2022/01/24 06:41:35;;;;;;;8.13;6.12;;;;;;;6.12;47.14;101376.66;1735514;81;21097;-68
2022/01/24 06:44:02;;;;;;;7.50;6.08;;;;;;;6.12;47.14;101381.10;1757942;81;21057;-68
2022/01/24 06:46:29;;;;;;;7.20;5.97;;;;;;;6.12;47.12;101379.30;1754138;81;21037;-67
2022/01/24 06:48:56;;;;;;;7.70;6.10;;;;;;;6.12;47.12;101377.14;1750411;81;21105;-66
2022/01/24 06:51:22;;;;;;;7.28;6.08;;;;;;;6.11;47.08;101373.67;1743089;81;21111;-67
2022/01/24 06:53:49;;;;;;;6.53;5.70;;;;;;;6.12;47.08;101375.83;1751266;81;21077;-68
2022/01/24 06:56:16;;;;;;;6.75;5.58;;;;;;;6.12;47.08;101371.38;1743976;81;21540;-69
2022/01/24 06:58:42;;;;;;;7.05;6.12;;;;;;;6.12;47.07;101370.55;1740821;80;21509;-66
2022/01/24 07:01:09;;;;;;;6.90;5.87;;;;;;;6.12;47.05;101370.55;1757630;80;21096;-69
2022/01/24 07:03:35;;;;;;;6.75;5.67;;;;;;;6.13;47.04;101373.09;1725726;81;21803;-68
2022/01/24 07:06:02;;;;;;;7.33;6.47;;;;;;;6.13;47.05;101366.97;1728408;81;21062;-69
2022/01/24 07:08:28;;;;;;;7.37;5.97;;;;;;;6.13;47.03;101367.81;1743002;81;22159;-66
2022/01/24 07:10:55;;;;;;;7.45;5.97;;;;;;;6.14;47.02;101370.81;1757345;80;21084;-66
2022/01/24 07:13:22;;;;;;;7.03;6.33;;;;;;;6.13;47.00;101377.53;1742929;80;21121;-71
2022/01/24 07:15:57;;;;;;;6.95;5.60;;;;;;;6.14;47.02;101372.61;1745670;81;21087;-68
2022/01/24 07:20:55;;;;;;;7.30;6.15;;;;;;;6.14;46.99;101366.84;1735640;81;21564;-63
2022/01/24 07:23:21;;;;;;;6.78;5.70;;;;;;;6.16;46.99;101368.08;1735230;81;21136;-67
2022/01/24 07:25:47;;;;;;;7.17;6.17;;;;;;;6.16;47.21;101367.62;1741858;81;21565;-66
2022/01/24 07:28:14;;;;;;;7.67;6.55;;;;;;;6.17;47.50;101373.74;1745153;81;21234;-64
2022/01/24 07:30:41;;;;;;;6.50;5.87;;;;;;;6.17;47.55;101374.58;1739690;81;21569;-65
2022/01/24 07:33:08;;;;;;;7.95;6.37;;;;;;;6.20;47.54;101373.53;1748942;81;21029;-64
2022/01/24 07:35:34;;;;;;;7.78;6.58;;;;;;;6.20;47.52;101373.08;1734971;81;21014;-68
2022/01/24 07:38:00;;;;;;;7.62;6.12;;;;;;;6.21;47.50;101367.31;1732197;81;21096;-66
2022/01/24 07:40:27;;;;;;;7.75;6.35;;;;;;;6.23;47.45;101369.37;1739510;81;21132;-64
2022/01/24 07:43:08;;;;;;;7.00;6.03;;;;;;;6.23;47.38;101372.86;1743481;81;21082;-65
2022/01/24 07:45:25;;;;;;;6.80;5.75;;;;;;;6.25;47.36;101371.44;1737333;81;21042;-65
2022/01/24 07:47:52;;;;;;;7.50;6.17;;;;;;;6.26;47.35;101363.43;1737718;81;21065;-65
2022/01/24 07:50:22;;;;;;;7.53;5.33;;;;;;;6.27;47.29;101356.35;1740191;81;21062;-65
2022/01/24 07:52:49;;;;;;;6.78;5.67;;;;;;;6.29;47.26;101363.69;1741867;81;21124;-63
2022/01/24 07:55:15;;;;;;;7.67;5.83;;;;;;;6.31;47.22;101364.44;1750111;81;21661;-65
2022/01/24 07:57:41;;;;;;;7.20;5.95;;;;;;;6.33;47.17;101365.66;1747488;81;21464;-65
2022/01/24 08:00:10;;;;;;;7.60;6.15;;;;;;;6.34;47.13;101364.25;1734701;81;21083;-63
2022/01/24 08:02:41;;;;;;;7.00;5.57;;;;;;;6.35;47.10;101358.00;1727768;81;21069;-62
2022/01/24 08:05:08;;;;;;;7.75;6.08;;;;;;;6.37;47.04;101357.91;1736208;81;21652;-64
2022/01/24 08:07:35;;;;;;;8.48;6.03;;;;;;;6.38;47.03;101360.94;1731801;81;21092;-65
2022/01/24 08:10:04;;;;;;;6.53;5.62;;;;;;;6.38;47.00;101348.58;1729569;81;21061;-65
2022/01/24 08:12:31;;;;;;;6.33;5.72;;;;;;;6.40;46.98;101345.36;1734352;81;21177;-65
2022/01/24 08:15:02;;;;;;;7.60;5.65;;;;;;;6.42;46.92;101350.06;1737547;81;21125;-65
2022/01/24 08:17:29;;;;;;;7.78;6.25;;;;;;;6.44;46.90;101341.56;1744284;81;21118;-64
2022/01/24 08:19:56;;;;;;;6.80;5.92;;;;;;;6.44;46.85;101345.52;1718087;81;21630;-63
2022/01/24 08:22:23;;;;;;;7.00;5.87;;;;;;;6.42;46.83;101339.50;1719778;81;21113;-64
2022/01/24 08:24:51;;;;;;;6.75;5.58;;;;;;;6.48;46.81;101339.09;1705229;82;21509;-64
2022/01/24 08:27:18;;;;;;;6.78;5.65;;;;;;;6.49;46.78;101339.47;1748419;81;21049;-64
2022/01/24 08:29:47;;;;;;;7.58;5.97;;;;;;;6.51;46.75;101345.98;1750464;81;22133;-64
2022/01/24 08:32:14;;;;;;;7.05;6.03;;;;;;;6.54;46.71;101340.95;1719306;82;20996;-66
2022/01/24 08:34:40;;;;;;;5.80;5.20;;;;;;;6.55;46.66;101338.67;1748106;81;21061;-67
2022/01/24 08:37:06;;;;;;;6.60;5.80;;;;;;;6.57;46.67;101335.48;1748155;81;22195;-65
2022/01/24 08:39:33;;;;;;;7.25;5.97;;;;;;;6.58;46.62;101334.52;1741509;81;21104;-64
2022/01/24 08:42:10;;;;;;;7.33;6.22;;;;;;;6.60;46.58;101336.09;1749307;81;21600;-65
2022/01/24 08:45:41;;;;;;;7.20;6.25;;;;;;;6.63;46.58;101331.10;1749027;81;21067;-66
2022/01/24 08:47:00;;;;;;;6.00;5.25;;;;;;;6.65;46.53;101326.56;1743746;81;21538;-66
2022/01/24 08:49:26;;;;;;;7.00;5.90;;;;;;;6.67;46.50;101327.30;1745922;81;21127;-66
2022/01/24 08:51:53;;;;;;;6.53;5.50;;;;;;;6.69;46.48;101326.72;1748888;81;21718;-65
2022/01/24 08:54:19;;;;;;;7.22;6.12;;;;;;;6.70;46.44;101327.07;1750291;81;21157;-64
2022/01/24 08:56:47;;;;;;;7.50;6.10;;;;;;;6.72;46.41;101318.56;1744578;81;21576;-66
2022/01/24 08:59:13;;;;;;;5.87;4.95;;;;;;;6.74;46.39;101320.66;1747010;80;21054;-65
2022/01/24 09:01:40;;;;;;;6.35;5.55;;;;;;;6.75;46.37;101322.33;1719790;82;21124;-64
2022/01/24 09:04:06;;;;;;;7.72;5.83;;;;;;;6.78;46.34;101318.63;1730737;82;21588;-65
2022/01/24 09:06:34;;;;;;;7.30;5.83;;;;;;;6.79;46.30;101316.38;1704347;82;21189;-66
2022/01/24 09:09:04;;;;;;;7.33;5.70;;;;;;;6.81;46.28;101313.98;1715981;83;21109;-64
2022/01/24 09:11:32;;;;;;;7.70;6.67;;;;;;;6.82;46.24;101314.37;1721200;82;21049;-64
2022/01/24 09:13:59;;;;;;;6.62;5.92;;;;;;;6.85;46.22;101314.14;1731889;81;21104;-66
2022/01/24 09:16:25;;;;;;;7.58;6.40;;;;;;;6.87;46.20;101319.32;1728502;82;21689;-68
2022/01/24 09:18:52;;;;;;;7.12;5.75;;;;;;;6.88;46.15;101317.91;1734783;81;22558;-66
2022/01/24 09:21:18;;;;;;;7.15;5.58;;;;;;;6.91;46.12;101319.97;1741732;81;21017;-66
2022/01/24 09:23:45;;;;;;;7.97;5.90;;;;;;;6.93;46.10;101318.05;1753279;81;21131;-64
2022/01/24 09:26:12;;;;;;;7.40;6.00;;;;;;;6.95;46.06;101322.76;1742026;81;21341;-65
2022/01/24 09:28:38;;;;;;;6.92;5.90;;;;;;;6.97;46.05;101323.50;1748066;81;21062;-66
2022/01/24 09:31:05;;;;;;;7.53;6.25;;;;;;;6.98;46.03;101326.52;1749205;81;21155;-65
2022/01/24 09:33:32;;;;;;;7.22;6.20;;;;;;;6.99;46.00;101329.52;1742552;81;21692;-65
2022/01/24 09:36:01;;;;;;;6.87;6.03;;;;;;;7.01;45.96;101328.94;1748933;81;21068;-66
2022/01/24 09:38:31;;;;;;;8.65;7.00;;;;;;;7.02;45.95;101316.11;1745865;81;21589;-67
2022/01/24 09:41:00;;;;;;;6.58;5.87;;;;;;;7.05;45.92;101325.13;1754726;81;21501;-65
2022/01/24 09:43:26;;;;;;;7.30;6.15;;;;;;;7.05;45.90;101316.74;1755861;81;21118;-65
2022/01/24 09:45:53;;;;;;;7.28;6.53;;;;;;;7.07;45.86;101315.33;1738796;81;21054;-66
2022/01/24 09:48:19;;;;;;;7.92;6.22;;;;;;;7.08;45.83;101308.58;1754656;81;21043;-64
2022/01/24 09:50:50;;;;;;;7.47;6.28;;;;;;;7.10;45.82;101308.48;1737568;81;21470;-66
2022/01/24 09:55:21;;;;;;;7.97;5.85;;;;;;;7.17;45.77;101308.92;1860124;76;26881;-66
2022/01/24 09:57:48;;;;;;;7.87;6.50;;;;;;;7.14;45.72;101307.80;1846443;77;20960;-67
2022/01/24 10:00:21;;;;;;;7.75;6.50;;;;;;;7.16;45.71;101304.08;1853092;77;21464;-65
2022/01/24 10:02:49;;;;;;;7.47;5.97;;;;;;;7.16;45.69;101289.55;1850378;77;21013;-66
2022/01/24 10:05:37;;;;;;;7.17;6.17;;;;;;;7.17;45.68;101297.86;1844926;77;20988;-67
2022/01/24 10:08:05;;;;;;;7.83;6.45;;;;;;;7.18;45.66;101295.56;1847850;77;21484;-66
2022/01/24 10:10:54;;;;;;;6.70;6.08;;;;;;;7.20;45.66;101291.50;1853047;77;21354;-66
2022/01/24 10:16:33;;;;;;;7.30;6.53;;;;;;;7.23;45.62;101288.17;1847552;77;21000;-65
2022/01/24 10:19:07;;;;;;;8.35;6.65;;;;;;;7.23;45.60;101285.53;1850373;77;21072;-66
2022/01/24 10:21:54;;;;;;;7.97;6.08;;;;;;;7.25;45.59;101274.85;1841481;77;21541;-67
2022/01/24 10:24:42;;;;;;;6.70;5.72;;;;;;;7.26;45.56;101273.42;1834079;77;21093;-68
2022/01/24 10:27:23;;;;;;;7.15;6.28;;;;;;;7.27;45.53;101267.17;1821959;77;22094;-67
2022/01/24 10:29:56;;;;;;;7.78;6.35;;;;;;;7.28;45.54;101258.30;1850934;77;21008;-69
2022/01/24 10:32:44;;;;;;;;;;;;;;;7.31;45.52;101267.80;1831486;77;21009;-68
2022/01/24 10:35:28;;;;;;;7.55;6.35;;;;;;;7.32;45.51;101262.02;1851372;77;20162;-70
2022/01/24 10:38:40;;;;;;;7.62;6.62;;;;;;;7.33;45.49;101259.28;1832892;77;21018;-67
2022/01/24 10:41:16;;;;;;;7.10;6.03;;;;;;;7.35;45.48;101260.50;1837100;77;25051;-69
2022/01/24 10:43:39;;;;;;;7.10;6.33;;;;;;;7.37;45.45;101259.91;1853900;77;20970;-69
2022/01/24 10:46:06;;;;;;;7.53;6.65;;;;;;;7.39;45.42;101255.35;1842357;77;21474;-68
2022/01/24 10:48:39;;;;;;;7.90;6.80;;;;;;;7.40;45.41;101254.41;1846712;77;21163;-69
2022/01/24 10:51:21;;;;;;;7.78;6.30;;;;;;;7.41;45.39;101247.66;1857522;77;21021;-68
2022/01/24 10:53:55;;;;;;;8.48;6.37;;;;;;;7.44;45.37;101241.33;1846009;77;21192;-70
2022/01/24 10:56:28;;;;;;;;;;;;;;;7.46;45.35;101248.67;1841184;77;21038;-68
2022/01/24 10:59:06;;;;;;;8.93;7.20;;;;;;;7.49;45.31;101241.82;1848883;77;20139;-69
2022/01/24 11:01:33;;;;;;;8.33;6.62;;;;;;;7.52;45.29;101227.55;1838198;77;21044;-67
2022/01/24 11:04:01;;;;;;;7.97;6.65;;;;;;;7.55;45.29;101228.17;1863582;77;20986;-67
2022/01/24 11:06:30;;;;;;;7.30;5.95;;;;;;;7.58;45.26;101227.94;1861202;77;21125;-67
2022/01/24 11:09:23;;;;;;;7.28;6.20;;;;;;;7.62;45.25;101225.43;1850029;77;21064;-68
2022/01/24 11:12:08;;;;;;;7.95;6.75;;;;;;;7.65;45.20;101222.57;1836036;77;21101;-68
2022/01/24 11:14:35;;;;;;;7.50;6.53;;;;;;;7.70;45.18;101221.38;1841602;77;21492;-68
2022/01/24 11:17:02;;;;;;;7.72;6.83;;;;;;;7.74;45.16;101220.20;1851699;76;21701;-68
2022/01/24 11:19:40;;;;;;;8.05;6.95;;;;;;;7.78;45.13;101217.69;1854820;77;21197;-69
2022/01/24 11:22:06;;;;;;;11.38;6.75;;;;;;;7.83;45.12;101207.61;1844816;77;21037;-70
2022/01/24 11:24:43;;;;;;;8.38;6.80;;;;;;;7.89;45.09;101212.44;1839804;77;21059;-68
2022/01/24 11:27:06;;;;;;;7.85;5.80;;;;;;;7.96;45.05;101207.06;1821047;77;21036;-69
2022/01/24 11:29:32;;;;;;;7.55;6.33;;;;;;;8.03;45.02;101207.43;1847496;77;21075;-67
2022/01/24 11:32:26;;;;;;;7.75;6.25;;;;;;;8.09;44.97;101212.25;1853758;77;23332;-67
2022/01/24 11:34:55;;;;;;;7.97;7.10;;;;;;;8.15;44.94;101201.23;1860115;77;21025;-68
2022/01/24 11:37:41;;;;;;;7.08;6.40;;;;;;;8.21;44.90;101217.13;1855121;77;20981;-68
2022/01/24 11:40:14;;;;;;;7.62;6.50;;;;;;;8.26;44.85;101219.76;1848994;77;22262;-67
2022/01/24 11:42:42;;;;;;;7.65;6.50;;;;;;;8.31;44.78;101214.13;1836265;76;21033;-66
2022/01/24 11:45:14;;;;;;;7.97;6.75;;;;;;;8.36;44.78;101220.38;1838370;77;21129;-67
2022/01/24 11:47:39;;;;;;;8.10;6.83;;;;;;;8.40;44.72;101215.21;1856721;77;21091;-64
2022/01/24 11:50:36;;;;;;;7.78;6.55;;;;;;;8.44;44.66;101210.07;1849461;77;21584;-66
2022/01/24 11:53:00;;;;;;;8.68;5.87;;;;;;;8.47;44.62;101200.58;1845014;77;21052;-68
2022/01/24 11:55:36;;;;;;;7.37;6.58;;;;;;;8.52;44.57;101204.19;1832549;76;21572;-67
2022/01/24 11:58:05;;;;;;;7.65;6.83;;;;;;;8.55;44.54;101207.44;1818740;77;21106;-68
2022/01/24 12:00:44;;;;;;;6.70;6.03;;;;;;;8.58;44.50;101201.08;1799100;78;21068;-68
2022/01/24 12:03:28;;;;;;;7.42;6.72;;;;;;;8.59;44.48;101204.91;1803469;78;21009;-68
2022/01/24 12:05:58;;;;;;;7.12;6.40;;;;;;;8.62;44.46;101213.13;1805151;78;21068;-66
2022/01/24 12:08:35;;;;;;;8.03;6.45;;;;;;;8.63;44.45;101204.20;1802159;78;21528;-64
2022/01/24 12:11:30;;;;;;;7.35;6.28;;;;;;;8.63;44.44;101201.55;1799703;78;21803;-66
2022/01/24 12:14:02;;;;;;;7.60;5.95;;;;;;;8.65;44.44;101206.24;1793503;78;21801;-65
2022/01/24 12:16:39;;;;;;;6.35;5.47;;;;;;;8.65;44.40;101194.32;1804406;78;21033;-66
2022/01/24 12:19:06;;;;;;;6.95;5.97;;;;;;;8.66;44.37;101204.80;1793896;78;21024;-66
2022/01/24 12:21:35;;;;;;;6.35;5.62;;;;;;;8.69;44.37;101208.17;1795212;78;21065;-66
2022/01/24 12:24:08;;;;;;;6.87;5.95;;;;;;;8.70;44.34;101199.28;1824293;78;21097;-65
2022/01/24 12:26:44;;;;;;;8.13;6.62;;;;;;;8.73;44.34;101205.64;1820270;78;21001;-64
2022/01/24 12:29:20;;;;;;;6.90;6.00;;;;;;;8.74;44.31;101201.55;1815630;78;21029;-64
2022/01/24 12:31:53;;;;;;;7.28;6.08;;;;;;;8.77;44.30;101195.16;1823719;78;21068;-66
2022/01/24 12:34:24;;;;;;;7.35;6.55;;;;;;;8.80;44.25;101194.44;1823991;78;21088;-65
2022/01/24 12:37:00;;;;;;;8.33;5.87;;;;;;;8.83;44.22;101188.08;1799879;78;22323;-65
2022/01/24 12:39:49;;;;;;;6.90;5.53;;;;;;;8.85;44.19;101198.07;1811882;78;21073;-67
2022/01/24 12:42:19;;;;;;;6.65;5.58;;;;;;;8.88;44.16;101198.30;1822397;78;21069;-65
2022/01/24 12:47:18;;;;;;;6.78;5.42;;;;;;;8.93;44.12;101196.14;1803366;78;21741;-66
2022/01/24 12:49:46;;;;;;;7.28;6.45;;;;;;;8.95;44.11;101198.19;1805281;78;21141;-66
2022/01/24 12:52:19;;;;;;;7.15;6.25;;;;;;;8.99;44.09;101190.34;1809372;78;21050;-65
2022/01/24 12:54:51;;;;;;;6.40;5.72;;;;;;;9.02;44.01;101199.36;1810822;77;21068;-64
2022/01/24 12:57:20;;;;;;;5.80;5.17;;;;;;;9.04;44.00;101196.13;1810735;78;21026;-65
2022/01/24 13:00:03;;;;;;;7.62;6.60;;;;;;;9.06;43.98;101196.85;1813990;77;21136;-66
2022/01/24 13:02:32;;;;;;;7.20;6.37;;;;;;;9.08;43.95;101198.89;1810969;78;21136;-66
2022/01/24 13:05:11;;;;;;;6.12;5.53;;;;;;;9.08;43.86;101196.24;1818058;78;21068;-68
2022/01/24 13:07:39;;;;;;;6.97;5.83;;;;;;;9.09;43.89;101203.22;1820016;78;21040;-65
2022/01/24 13:10:12;;;;;;;7.20;5.87;;;;;;;9.09;43.88;101195.27;1814100;78;20989;-67
2022/01/24 13:12:39;;;;;;;6.37;5.53;;;;;;;9.08;43.87;101196.24;1803921;78;21081;-66
2022/01/24 13:15:20;;;;;;;6.70;5.90;;;;;;;9.07;43.88;101197.20;1818711;78;21150;-66